Historyczne dane pomiarowe

Dodano dane terminowe – wersja testowa.

Dane z okresu 1951-2019

Wersja bazy: 1.34 [2019-03-16, lista zmian], aktualizacja planowana na 2019-04-15

Dane meteo z obszaru Polski uzyskane na podstawie danych udostępnionych przez Instytut Meteorologii i Gospodarki Wodnej – Państwowy Instytut Badawczy.

 

Wybierz Datę:    

       

TemperaturaWilgotnośćWiatrCiśnienieOpadyŚniegCzas trwania zjawisk
 Stacja t tx tn tng RH VA  wxwx mslp ppp RRR   cm mm wxwxwxwxwxwxwx
2019-07-01 21.6 30.4 16.6 14.6 60.3- 4.0 6.3---- 1.2------------
2019-06-30 25.0 33.9 15.1 8.2 46.3- 0.0 4.3---- 0.0------------
2019-06-29 20.0 25.3 14.0 8.0 56.5- 1.0 4.7---- 0.0------------
2019-06-28 17.8 22.6 12.8 9.0 64.0- 1.3 3.0---- 0.0------------
2019-06-27 18.8 28.6 15.3 14.8 88.5- 6.7 4.7---- 0.0------------
2019-06-26 25.7 33.4 17.8 13.8 55.5- 3.0 4.3---- 0.7------------
2019-06-25 22.1 27.8 13.8 8.9 50.8- 4.0 2.7---- 0.0------------
2019-06-24 17.7 24.2 9.8 3.6 66.8- 3.3 4.3---- 0.0------------
2019-06-23 16.3 22.0 8.9 4.9 57.3- 0.7 3.3---- 0.0------------
2019-06-22 16.9 21.5 11.6 7.2 66.5- 3.0 3.3---- 0.0------------
2019-06-21 19.4 23.6 16.7 14.9 72.8- 6.3 0.7---- 0.0------------
2019-06-20 22.4 28.8 18.3 13.3 83.0- 6.3 3.3---- 9.0------------
2019-06-19 21.8 26.2 15.2 10.5 57.0- 2.3 3.7---- 0.0------------
2019-06-18 19.8 26.0 12.8 9.3 64.0- 1.7 1.7---- 0.0------------
2019-06-17 18.5 22.8 13.7 12.1 64.0- 2.0 2.7---- 0.0------------
2019-06-16 18.1 24.3 15.1 15.3 90.8- 7.7 6.0---- 0.1------------
2019-06-15 20.7 26.0 13.9 9.3 67.8- 5.3 4.3---- 13.8------------
2019-06-14 19.8 25.5 15.3 12.3 62.5- 1.7 2.7---- 0.0------------
2019-06-13 20.8 28.5 17.8 16.9 88.8- 6.0 2.7---- 2.0------------
2019-06-12 27.0 31.7 22.4 17.9 56.5- 1.7 4.7---- 6.6------------
2019-06-11 23.8 30.6 16.5 14.8 72.3- 2.7 4.3---- 0.0------------
2019-06-10 19.4 25.6 13.3 9.4 74.0- 7.0 4.0---- 40.1------------
2019-06-09 17.3 23.5 10.6 5.1 55.0- 3.0 3.3---- 0.0------------
2019-06-08 17.7 25.7 13.4 13.4 82.3- 6.0 1.3---- 16.0------------
2019-06-07 20.1 25.0 16.6 12.4 85.8- 7.0 2.0---- 0.2------------
2019-06-06 23.5 27.2 20.4 16.2 56.0- 2.7 6.0---- 0.0------------
2019-06-05 23.6 28.7 17.2 12.1 57.0- 2.3 2.7---- 0.0------------
2019-06-04 22.7 28.1 15.9 10.1 50.3- 1.0 4.7---- 0.0------------
2019-06-03 21.0 28.8 10.1 5.7 54.3- 0.3 3.7---- 0.0------------
2019-06-02 16.6 23.0 11.0 5.7 67.0- 2.3 2.0---- 0.0------------
2019-06-01 15.8 21.8 10.0 4.4 81.8- 5.3 3.3---- 3.4------------
2019-05-31 15.6 19.6 11.8 6.5 73.8- 5.0 4.3---- 0.2------------
2019-05-30 11.3 17.8 2.8 -2.5 60.8- 1.7 2.3---- 0.0------------
2019-05-29 10.1 13.3 6.8 4.0 61.0- 1.7 4.0---- 0.0------------
2019-05-28 11.5 14.0 10.2 10.0 94.0- 8.0 4.0---- 2.4------------
2019-05-27 14.4 16.8 13.2 13.1 83.0- 6.3 5.7---- 11.8------------
2019-05-26 12.6 16.0 9.2 6.8 72.0- 8.0 9.3---- 0.2------------
2019-05-25 13.2 18.0 11.0 6.1 68.3- 6.3 5.7---- 0.0------------
2019-05-24 15.1 20.1 7.7 3.3 57.8- 4.7 2.0---- 0.0------------
2019-05-23 13.0 19.0 10.3 10.7 85.8- 7.3 3.7---- 0.0------------
2019-05-22 18.4 23.4 12.3 8.6 69.8- 1.7 2.7---- 0.0------------
2019-05-21 19.0 23.3 14.5 12.2 73.3- 5.3 2.7---- 0.0------------
2019-05-20 17.7 23.4 12.6 8.8 85.8- 5.7 5.7---- 0.6------------
2019-05-19 15.3 18.8 11.6 8.7 92.3- 6.0 3.7---- 0.8------------
2019-05-18 15.3 18.7 12.5 9.9 94.8- 5.0 2.3---- 6.4------------
2019-05-17 13.8 16.8 12.0 12.0 97.5- 7.7 2.7---- 12.1------------
2019-05-16 11.7 16.8 7.2 6.7 84.8- 6.7 6.3---- 8.0------------
2019-05-15 8.0 12.3 5.1 3.7 80.0- 7.7 6.3---- 4.5------------
2019-05-14 7.6 11.4 4.6 1.4 53.0- 3.3 10.3---- 1.2------------
2019-05-13 7.6 10.9 4.8 1.4 68.0- 6.7 3.0---- 0.2------------
2019-05-12 9.1 12.6 5.5 1.5 69.8- 7.7 1.7---- 0.0------------
2019-05-11 11.0 14.9 8.1 3.1 76.3- 6.7 3.0---- 0.0------------
2019-05-10 12.5 17.9 8.6 6.7 74.8- 7.0 1.7---- 0.0------------
2019-05-09 10.3 13.7 7.9 6.0 63.0- 8.0 4.7---- 1.1------------
2019-05-08 8.2 13.5 -0.8 -6.7 43.8- 4.3 4.3---- 0.0------------
2019-05-07 7.2 10.9 3.2 -1.6 56.0- 3.0 4.7---- 0.2------------
2019-05-06 6.3 12.8 -0.9 -7.5 55.5- 3.0 2.7---- 0.0------------
2019-05-05 6.3 12.0 0.1 -5.8 59.0- 2.3 1.0---- 0.0------------
2019-05-04 5.6 9.0 2.6 0.5 62.8- 6.0 5.3---- 0.0------------
2019-05-03 5.9 9.5 3.9 2.6 70.8- 6.3 5.3---- 0.8------------
756.5 ms

 

Źródłem pochodzenia danych jest Instytut Meteorologii i Gospodarki Wodnej – Państwowy Instytut Badawczy. Dane Instytutu Meteorologii i Gospodarki Wodnej – Państwowego Instytutu Badawczego zostały przetworzone.

Dane źródłowe można odnaleźć na stronie https://dane.imgw.pl